Piper — WDE6779 — position and weather

sailwx.info

Track history (hours):
 
Tides and Currents Weather Stations Pressure Air Temp Water Temp Dewpoint Dewpoint Depression Visibility Wind Speed Wind Dir Waves Ship Positions

Piper

Owner: ADS MARINE, LLC, MORGAN CITY, LA. More information available from US FCC via Universal Licensing System and Coast Guard Vessel Documentation Center.

Last reported at 2018-Jun-19 01:26 UTC. Time now 2018-Jun-24 15:06 UTC.
Position N 29°34' W 092°18'.

Length 40 m; draft 3 m.

Type: Cargo ship. MMSI: 367384720.

Date/timePositionNaut miles runAvg speedWind from/ knotsBaromVisibWave heightAir tempDewpointWater temp
2018-Jun-19 01:26N 29°34' W 092°18'0 0.6
2018-Jun-19 01:00N 29°34' W 092°18'2 4.9
2018-Jun-19 00:30N 29°36' W 092°17'4 7.9
2018-Jun-19 00:00N 29°40' W 092°15'4 8.1
2018-Jun-18 23:30N 29°44' W 092°14'4 7.8
2018-Jun-18 23:00N 29°46' W 092°10'1 1.5
2018-Jun-18 22:30N 29°47' W 092°11'0 0.0
2018-Jun-18 22:00N 29°47' W 092°11'0 0.0
2018-Jun-18 21:30N 29°47' W 092°11'0 0.0
2018-Jun-18 21:00N 29°47' W 092°11'0 0.0
2018-Jun-18 20:30N 29°47' W 092°11'0 0.0
2018-Jun-18 20:00N 29°47' W 092°11'0 0.0
2018-Jun-18 19:30N 29°47' W 092°11'0 0.0
2018-Jun-18 19:00N 29°47' W 092°11'0 0.0
2018-Jun-18 18:30N 29°47' W 092°11'0 0.0
2018-Jun-18 18:00N 29°47' W 092°11'0 0.0
2018-Jun-18 17:30N 29°47' W 092°11'1 0.1
2018-Jun-18 09:08N 29°47' W 092°10'0 0.0
2018-Jun-18 09:00N 29°47' W 092°10'0 0.0
2018-Jun-18 08:30N 29°47' W 092°10'0 0.0
2018-Jun-18 08:00N 29°47' W 092°10'0 0.2
2018-Jun-18 07:30N 29°47' W 092°10'1 1.6
2018-Jun-18 07:00N 29°47' W 092°11'0 0.0
2018-Jun-18 06:30N 29°47' W 092°11'0 0.0
2018-Jun-18 06:00N 29°47' W 092°11'2 3.9
2018-Jun-18 05:30N 29°45' W 092°12'4 7.0
2018-Jun-18 05:00N 29°42' W 092°15'3 6.9
2018-Jun-18 04:30N 29°39' W 092°16'3 6.8
2018-Jun-18 04:00N 29°36' W 092°17'  
2018-Jun-12 02:49N 29°34' W 092°18'1 4.2
2018-Jun-12 02:30N 29°35' W 092°18'3 6.2
2018-Jun-12 02:00N 29°38' W 092°16'3 6.2
2018-Jun-12 01:30N 29°41' W 092°15'3 6.7
2018-Jun-12 01:00N 29°44' W 092°14'3 7.0
2018-Jun-12 00:30N 29°46' W 092°11'1 1.8
2018-Jun-12 00:00N 29°47' W 092°11'0 0.0
2018-Jun-11 23:30N 29°47' W 092°11'0 0.3
2018-Jun-11 23:00N 29°47' W 092°11'0 0.0
2018-Jun-11 22:30N 29°47' W 092°11'0 0.0
2018-Jun-11 22:00N 29°47' W 092°11'0 0.0
2018-Jun-11 21:30N 29°47' W 092°11'0 0.5
2018-Jun-11 21:00N 29°47' W 092°11'1 1.1
2018-Jun-11 20:30N 29°47' W 092°10'0 0.0
2018-Jun-11 20:00N 29°47' W 092°10'0 0.0
2018-Jun-11 19:30N 29°47' W 092°10'0 0.0
2018-Jun-11 19:00N 29°47' W 092°10'0 0.0
2018-Jun-11 18:30N 29°47' W 092°10'0 0.0
2018-Jun-11 18:00N 29°47' W 092°10'0 0.0
2018-Jun-11 17:30N 29°47' W 092°10'0 0.0
2018-Jun-11 17:00N 29°47' W 092°10'0 0.0
2018-Jun-11 16:30N 29°47' W 092°10'0 0.0
2018-Jun-11 16:00N 29°47' W 092°10'0 0.0
2018-Jun-11 15:30N 29°47' W 092°10'0 0.0
2018-Jun-11 15:00N 29°47' W 092°10'0 0.0
2018-Jun-11 14:30N 29°47' W 092°10'0 0.0
2018-Jun-11 14:00N 29°47' W 092°10'0 0.0
2018-Jun-11 13:30N 29°47' W 092°10'1 1.6
2018-Jun-11 13:00N 29°47' W 092°11'0 0.0
2018-Jun-11 12:30N 29°47' W 092°11'0 0.0
2018-Jun-11 12:00N 29°47' W 092°11'0 0.0
2018-Jun-11 11:30N 29°47' W 092°11'0 0.0
2018-Jun-11 11:00N 29°47' W 092°11'0 0.0
2018-Jun-11 10:30N 29°47' W 092°11'2 3.7
2018-Jun-11 10:00N 29°45' W 092°12'4 7.2
2018-Jun-11 09:30N 29°43' W 092°15'4 7.5
2018-Jun-11 09:00N 29°39' W 092°16'  
Track history (hours):
 
Tides and Currents Weather Stations Pressure Air Temp Water Temp Dewpoint Dewpoint Depression Visibility Wind Speed Wind Dir Waves Ship Positions

Piper

Owner: ADS MARINE, LLC, MORGAN CITY, LA. More information available from US FCC via Universal Licensing System and Coast Guard Vessel Documentation Center.

Last reported at 2018-Jun-19 01:26 UTC. Time now 2018-Jun-24 15:06 UTC.
Position N 29°34' W 092°18'.

Length 40 m; draft 3 m.

Type: Cargo ship. MMSI: 367384720.

Date/timePositionNaut miles runAvg speedWind from/ knotsBaromVisibWave heightAir tempDewpointWater temp
2018-Jun-19 01:26N 29°34' W 092°18'0 0.6
2018-Jun-19 01:00N 29°34' W 092°18'2 4.9
2018-Jun-19 00:30N 29°36' W 092°17'4 7.9
2018-Jun-19 00:00N 29°40' W 092°15'4 8.1
2018-Jun-18 23:30N 29°44' W 092°14'4 7.8
2018-Jun-18 23:00N 29°46' W 092°10'1 1.5
2018-Jun-18 22:30N 29°47' W 092°11'0 0.0
2018-Jun-18 22:00N 29°47' W 092°11'0 0.0
2018-Jun-18 21:30N 29°47' W 092°11'0 0.0
2018-Jun-18 21:00N 29°47' W 092°11'0 0.0
2018-Jun-18 20:30N 29°47' W 092°11'0 0.0
2018-Jun-18 20:00N 29°47' W 092°11'0 0.0
2018-Jun-18 19:30N 29°47' W 092°11'0 0.0
2018-Jun-18 19:00N 29°47' W 092°11'0 0.0
2018-Jun-18 18:30N 29°47' W 092°11'0 0.0
2018-Jun-18 18:00N 29°47' W 092°11'0 0.0
2018-Jun-18 17:30N 29°47' W 092°11'1 0.1
2018-Jun-18 09:08N 29°47' W 092°10'0 0.0
2018-Jun-18 09:00N 29°47' W 092°10'0 0.0
2018-Jun-18 08:30N 29°47' W 092°10'0 0.0
2018-Jun-18 08:00N 29°47' W 092°10'0 0.2
2018-Jun-18 07:30N 29°47' W 092°10'1 1.6
2018-Jun-18 07:00N 29°47' W 092°11'0 0.0
2018-Jun-18 06:30N 29°47' W 092°11'0 0.0
2018-Jun-18 06:00N 29°47' W 092°11'2 3.9
2018-Jun-18 05:30N 29°45' W 092°12'4 7.0
2018-Jun-18 05:00N 29°42' W 092°15'3 6.9
2018-Jun-18 04:30N 29°39' W 092°16'3 6.8
2018-Jun-18 04:00N 29°36' W 092°17'  
2018-Jun-12 02:49N 29°34' W 092°18'1 4.2
2018-Jun-12 02:30N 29°35' W 092°18'3 6.2
2018-Jun-12 02:00N 29°38' W 092°16'3 6.2
2018-Jun-12 01:30N 29°41' W 092°15'3 6.7
2018-Jun-12 01:00N 29°44' W 092°14'3 7.0
2018-Jun-12 00:30N 29°46' W 092°11'1 1.8
2018-Jun-12 00:00N 29°47' W 092°11'0 0.0
2018-Jun-11 23:30N 29°47' W 092°11'0 0.3
2018-Jun-11 23:00N 29°47' W 092°11'0 0.0
2018-Jun-11 22:30N 29°47' W 092°11'0 0.0
2018-Jun-11 22:00N 29°47' W 092°11'0 0.0
2018-Jun-11 21:30N 29°47' W 092°11'0 0.5
2018-Jun-11 21:00N 29°47' W 092°11'1 1.1
2018-Jun-11 20:30N 29°47' W 092°10'0 0.0
2018-Jun-11 20:00N 29°47' W 092°10'0 0.0
2018-Jun-11 19:30N 29°47' W 092°10'0 0.0
2018-Jun-11 19:00N 29°47' W 092°10'0 0.0
2018-Jun-11 18:30N 29°47' W 092°10'0 0.0
2018-Jun-11 18:00N 29°47' W 092°10'0 0.0
2018-Jun-11 17:30N 29°47' W 092°10'0 0.0
2018-Jun-11 17:00N 29°47' W 092°10'0 0.0
2018-Jun-11 16:30N 29°47' W 092°10'0 0.0
2018-Jun-11 16:00N 29°47' W 092°10'0 0.0
2018-Jun-11 15:30N 29°47' W 092°10'0 0.0
2018-Jun-11 15:00N 29°47' W 092°10'0 0.0
2018-Jun-11 14:30N 29°47' W 092°10'0 0.0
2018-Jun-11 14:00N 29°47' W 092°10'0 0.0
2018-Jun-11 13:30N 29°47' W 092°10'1 1.6
2018-Jun-11 13:00N 29°47' W 092°11'0 0.0
2018-Jun-11 12:30N 29°47' W 092°11'0 0.0
2018-Jun-11 12:00N 29°47' W 092°11'0 0.0
2018-Jun-11 11:30N 29°47' W 092°11'0 0.0
2018-Jun-11 11:00N 29°47' W 092°11'0 0.0
2018-Jun-11 10:30N 29°47' W 092°11'2 3.7
2018-Jun-11 10:00N 29°45' W 092°12'4 7.2
2018-Jun-11 09:30N 29°43' W 092°15'4 7.5
2018-Jun-11 09:00N 29°39' W 092°16'  

Dump ship's entire track history